sensor_id;sensor_type;location;lat;lon;timestamp;temperature;humidity
921;DHT22;447;51.332;6.778;2022-12-10T00:01:18;5.10;99.90
921;DHT22;447;51.332;6.778;2022-12-10T00:03:45;5.10;99.90
921;DHT22;447;51.332;6.778;2022-12-10T00:06:14;5.10;99.90
921;DHT22;447;51.332;6.778;2022-12-10T00:08:40;5.10;99.90
921;DHT22;447;51.332;6.778;2022-12-10T00:11:09;5.10;99.90
921;DHT22;447;51.332;6.778;2022-12-10T00:13:36;5.10;99.90
921;DHT22;447;51.332;6.778;2022-12-10T00:16:04;5.10;99.90
921;DHT22;447;51.332;6.778;2022-12-10T00:18:31;5.10;99.90
921;DHT22;447;51.332;6.778;2022-12-10T00:20:57;5.10;99.90
921;DHT22;447;51.332;6.778;2022-12-10T00:23:23;5.10;99.90
921;DHT22;447;51.332;6.778;2022-12-10T00:25:50;5.00;99.90
921;DHT22;447;51.332;6.778;2022-12-10T00:28:20;5.10;99.90
921;DHT22;447;51.332;6.778;2022-12-10T00:30:51;5.00;99.90
921;DHT22;447;51.332;6.778;2022-12-10T00:33:17;5.10;99.90
921;DHT22;447;51.332;6.778;2022-12-10T00:35:43;5.10;99.90
921;DHT22;447;51.332;6.778;2022-12-10T00:38:12;5.10;99.90
921;DHT22;447;51.332;6.778;2022-12-10T00:40:40;5.00;99.90
921;DHT22;447;51.332;6.778;2022-12-10T00:43:08;5.00;99.90
921;DHT22;447;51.332;6.778;2022-12-10T00:45:34;5.00;99.90
921;DHT22;447;51.332;6.778;2022-12-10T00:48:03;5.00;99.90
921;DHT22;447;51.332;6.778;2022-12-10T00:50:29;5.00;99.90
921;DHT22;447;51.332;6.778;2022-12-10T00:52:57;5.00;99.90
921;DHT22;447;51.332;6.778;2022-12-10T00:55:23;5.00;99.90
921;DHT22;447;51.332;6.778;2022-12-10T00:57:49;5.00;99.90
921;DHT22;447;51.332;6.778;2022-12-10T01:00:18;5.00;99.90
921;DHT22;447;51.332;6.778;2022-12-10T01:02:44;5.00;99.90
921;DHT22;447;51.332;6.778;2022-12-10T01:05:10;5.00;99.90
921;DHT22;447;51.332;6.778;2022-12-10T01:07:38;5.00;99.90
921;DHT22;447;51.332;6.778;2022-12-10T01:10:04;5.00;99.90
921;DHT22;447;51.332;6.778;2022-12-10T01:12:30;5.00;99.90
921;DHT22;447;51.332;6.778;2022-12-10T01:14:56;5.00;99.90
921;DHT22;447;51.332;6.778;2022-12-10T01:17:24;5.00;99.90
921;DHT22;447;51.332;6.778;2022-12-10T01:19:53;4.90;99.90
921;DHT22;447;51.332;6.778;2022-12-10T01:22:19;4.90;99.90
921;DHT22;447;51.332;6.778;2022-12-10T01:24:49;4.90;99.90
921;DHT22;447;51.332;6.778;2022-12-10T01:27:19;4.90;99.90
921;DHT22;447;51.332;6.778;2022-12-10T01:29:48;4.90;99.90
921;DHT22;447;51.332;6.778;2022-12-10T01:32:16;4.90;99.90
921;DHT22;447;51.332;6.778;2022-12-10T01:34:42;4.90;99.90
921;DHT22;447;51.332;6.778;2022-12-10T01:37:08;4.90;99.90
921;DHT22;447;51.332;6.778;2022-12-10T01:39:34;4.90;99.90
921;DHT22;447;51.332;6.778;2022-12-10T01:42:00;4.90;99.90
921;DHT22;447;51.332;6.778;2022-12-10T01:46:58;4.80;99.90
921;DHT22;447;51.332;6.778;2022-12-10T01:49:31;4.90;99.90
921;DHT22;447;51.332;6.778;2022-12-10T01:52:01;4.90;99.90
921;DHT22;447;51.332;6.778;2022-12-10T01:54:37;4.80;99.90
921;DHT22;447;51.332;6.778;2022-12-10T01:57:14;4.90;99.90
921;DHT22;447;51.332;6.778;2022-12-10T01:59:49;4.80;99.90
921;DHT22;447;51.332;6.778;2022-12-10T02:02:38;4.80;99.90
921;DHT22;447;51.332;6.778;2022-12-10T02:08:06;4.80;99.90
921;DHT22;447;51.332;6.778;2022-12-10T02:13:14;4.80;99.90
921;DHT22;447;51.332;6.778;2022-12-10T02:15:49;4.80;99.90
921;DHT22;447;51.332;6.778;2022-12-10T02:18:21;4.80;99.90
921;DHT22;447;51.332;6.778;2022-12-10T02:20:54;4.80;99.90
921;DHT22;447;51.332;6.778;2022-12-10T02:23:29;4.70;99.90
921;DHT22;447;51.332;6.778;2022-12-10T02:28:39;4.70;99.90
921;DHT22;447;51.332;6.778;2022-12-10T02:31:15;4.70;99.90
921;DHT22;447;51.332;6.778;2022-12-10T02:33:48;4.70;99.90
921;DHT22;447;51.332;6.778;2022-12-10T02:36:18;4.70;99.90
921;DHT22;447;51.332;6.778;2022-12-10T02:38:47;4.70;99.90
921;DHT22;447;51.332;6.778;2022-12-10T02:41:30;4.70;99.90
921;DHT22;447;51.332;6.778;2022-12-10T02:44:00;4.70;99.90
921;DHT22;447;51.332;6.778;2022-12-10T02:46:32;4.70;99.90
921;DHT22;447;51.332;6.778;2022-12-10T02:49:06;4.60;99.90
921;DHT22;447;51.332;6.778;2022-12-10T02:51:34;4.70;99.90
921;DHT22;447;51.332;6.778;2022-12-10T02:56:58;4.60;99.90
921;DHT22;447;51.332;6.778;2022-12-10T02:59:37;4.60;99.90
921;DHT22;447;51.332;6.778;2022-12-10T03:02:18;4.60;99.90
921;DHT22;447;51.332;6.778;2022-12-10T03:07:49;4.60;99.90
921;DHT22;447;51.332;6.778;2022-12-10T03:10:30;4.60;99.90
921;DHT22;447;51.332;6.778;2022-12-10T03:13:05;4.60;99.90
921;DHT22;447;51.332;6.778;2022-12-10T03:15:34;4.60;99.90
921;DHT22;447;51.332;6.778;2022-12-10T03:18:04;4.60;99.90
921;DHT22;447;51.332;6.778;2022-12-10T03:20:34;4.60;99.90
921;DHT22;447;51.332;6.778;2022-12-10T03:23:07;4.60;99.90
921;DHT22;447;51.332;6.778;2022-12-10T03:25:34;4.60;99.90
921;DHT22;447;51.332;6.778;2022-12-10T03:28:01;4.60;99.90
921;DHT22;447;51.332;6.778;2022-12-10T03:30:30;4.60;99.90
921;DHT22;447;51.332;6.778;2022-12-10T03:33:00;4.60;99.90
921;DHT22;447;51.332;6.778;2022-12-10T03:35:27;4.60;99.90
921;DHT22;447;51.332;6.778;2022-12-10T03:37:53;4.60;99.90
921;DHT22;447;51.332;6.778;2022-12-10T03:40:23;4.60;99.90
921;DHT22;447;51.332;6.778;2022-12-10T03:42:52;4.60;99.90
921;DHT22;447;51.332;6.778;2022-12-10T03:45:21;4.60;99.90
921;DHT22;447;51.332;6.778;2022-12-10T03:47:47;4.60;99.90
921;DHT22;447;51.332;6.778;2022-12-10T03:50:17;4.60;99.90
921;DHT22;447;51.332;6.778;2022-12-10T03:52:45;4.60;99.90
921;DHT22;447;51.332;6.778;2022-12-10T03:55:14;4.50;99.90
921;DHT22;447;51.332;6.778;2022-12-10T03:57:40;4.60;99.90
921;DHT22;447;51.332;6.778;2022-12-10T04:00:06;4.50;99.90
921;DHT22;447;51.332;6.778;2022-12-10T04:02:38;4.60;99.90
921;DHT22;447;51.332;6.778;2022-12-10T04:05:05;4.60;99.90
921;DHT22;447;51.332;6.778;2022-12-10T04:07:32;4.60;99.90
921;DHT22;447;51.332;6.778;2022-12-10T04:09:58;4.60;99.90
921;DHT22;447;51.332;6.778;2022-12-10T04:12:24;4.60;99.90
921;DHT22;447;51.332;6.778;2022-12-10T04:14:50;4.50;99.90
921;DHT22;447;51.332;6.778;2022-12-10T04:17:37;4.60;99.90
921;DHT22;447;51.332;6.778;2022-12-10T04:20:03;4.60;99.90
921;DHT22;447;51.332;6.778;2022-12-10T04:22:52;4.50;99.90
921;DHT22;447;51.332;6.778;2022-12-10T04:25:39;4.50;99.90
921;DHT22;447;51.332;6.778;2022-12-10T04:28:29;4.50;99.90
921;DHT22;447;51.332;6.778;2022-12-10T04:30:57;4.50;99.90
921;DHT22;447;51.332;6.778;2022-12-10T04:33:23;4.50;99.90
921;DHT22;447;51.332;6.778;2022-12-10T04:35:52;4.50;99.90
921;DHT22;447;51.332;6.778;2022-12-10T04:38:20;4.50;99.90
921;DHT22;447;51.332;6.778;2022-12-10T04:40:49;4.50;99.90
921;DHT22;447;51.332;6.778;2022-12-10T04:43:15;4.50;99.90
921;DHT22;447;51.332;6.778;2022-12-10T04:45:41;4.50;99.90
921;DHT22;447;51.332;6.778;2022-12-10T04:48:07;4.50;99.90
921;DHT22;447;51.332;6.778;2022-12-10T04:50:34;4.50;99.90
921;DHT22;447;51.332;6.778;2022-12-10T04:53:00;4.50;99.90
921;DHT22;447;51.332;6.778;2022-12-10T04:55:26;4.50;99.90
921;DHT22;447;51.332;6.778;2022-12-10T04:57:52;4.50;99.90
921;DHT22;447;51.332;6.778;2022-12-10T05:00:21;4.50;99.90
921;DHT22;447;51.332;6.778;2022-12-10T05:02:50;4.50;99.90
921;DHT22;447;51.332;6.778;2022-12-10T05:05:16;4.50;99.90
921;DHT22;447;51.332;6.778;2022-12-10T05:07:47;4.50;99.90
921;DHT22;447;51.332;6.778;2022-12-10T05:10:15;4.50;99.90
921;DHT22;447;51.332;6.778;2022-12-10T05:12:41;4.50;99.90
921;DHT22;447;51.332;6.778;2022-12-10T05:15:07;4.50;99.90
921;DHT22;447;51.332;6.778;2022-12-10T05:17:36;4.50;99.90
921;DHT22;447;51.332;6.778;2022-12-10T05:20:02;4.50;99.90
921;DHT22;447;51.332;6.778;2022-12-10T05:22:31;4.50;99.90
921;DHT22;447;51.332;6.778;2022-12-10T05:25:15;4.50;99.90
921;DHT22;447;51.332;6.778;2022-12-10T05:27:41;4.50;99.90
921;DHT22;447;51.332;6.778;2022-12-10T05:30:10;4.50;99.90
921;DHT22;447;51.332;6.778;2022-12-10T05:32:37;4.50;99.90
921;DHT22;447;51.332;6.778;2022-12-10T05:35:10;4.50;99.90
921;DHT22;447;51.332;6.778;2022-12-10T05:37:38;4.50;99.90
921;DHT22;447;51.332;6.778;2022-12-10T05:40:05;4.50;99.90
921;DHT22;447;51.332;6.778;2022-12-10T05:42:31;4.40;99.90
921;DHT22;447;51.332;6.778;2022-12-10T05:44:57;4.50;99.90
921;DHT22;447;51.332;6.778;2022-12-10T05:47:27;4.40;99.90
921;DHT22;447;51.332;6.778;2022-12-10T05:53:20;4.40;99.90
921;DHT22;447;51.332;6.778;2022-12-10T05:55:46;4.40;99.90
921;DHT22;447;51.332;6.778;2022-12-10T05:58:13;4.40;99.90
921;DHT22;447;51.332;6.778;2022-12-10T06:00:41;4.40;99.90
921;DHT22;447;51.332;6.778;2022-12-10T06:03:08;4.40;99.90
921;DHT22;447;51.332;6.778;2022-12-10T06:05:40;4.40;99.90
921;DHT22;447;51.332;6.778;2022-12-10T06:08:06;4.40;99.90
921;DHT22;447;51.332;6.778;2022-12-10T06:10:36;4.40;99.90
921;DHT22;447;51.332;6.778;2022-12-10T06:13:05;4.40;99.90
921;DHT22;447;51.332;6.778;2022-12-10T06:15:31;4.40;99.90
921;DHT22;447;51.332;6.778;2022-12-10T06:17:58;4.40;99.90
921;DHT22;447;51.332;6.778;2022-12-10T06:20:27;4.40;99.90
921;DHT22;447;51.332;6.778;2022-12-10T06:22:55;4.40;99.90
921;DHT22;447;51.332;6.778;2022-12-10T06:25:22;4.40;99.90
921;DHT22;447;51.332;6.778;2022-12-10T06:27:48;4.40;99.90
921;DHT22;447;51.332;6.778;2022-12-10T06:30:16;4.40;99.90
921;DHT22;447;51.332;6.778;2022-12-10T06:32:42;4.40;99.90
921;DHT22;447;51.332;6.778;2022-12-10T06:35:09;4.30;99.90
921;DHT22;447;51.332;6.778;2022-12-10T06:37:36;4.40;99.90
921;DHT22;447;51.332;6.778;2022-12-10T06:40:04;4.40;99.90
921;DHT22;447;51.332;6.778;2022-12-10T06:42:31;4.40;99.90
921;DHT22;447;51.332;6.778;2022-12-10T06:45:03;4.40;99.90
921;DHT22;447;51.332;6.778;2022-12-10T06:47:31;4.40;99.90
921;DHT22;447;51.332;6.778;2022-12-10T06:49:59;4.40;99.90
921;DHT22;447;51.332;6.778;2022-12-10T06:52:25;4.40;99.90
921;DHT22;447;51.332;6.778;2022-12-10T06:54:54;4.40;99.90
921;DHT22;447;51.332;6.778;2022-12-10T06:57:21;4.30;99.90
921;DHT22;447;51.332;6.778;2022-12-10T06:59:47;4.40;99.90
921;DHT22;447;51.332;6.778;2022-12-10T07:02:20;4.30;99.90
921;DHT22;447;51.332;6.778;2022-12-10T07:04:46;4.40;99.90
921;DHT22;447;51.332;6.778;2022-12-10T07:07:12;4.40;99.90
921;DHT22;447;51.332;6.778;2022-12-10T07:09:40;4.40;99.90
921;DHT22;447;51.332;6.778;2022-12-10T07:12:08;4.40;99.90
921;DHT22;447;51.332;6.778;2022-12-10T07:14:36;4.40;99.90
921;DHT22;447;51.332;6.778;2022-12-10T07:17:05;4.40;99.90
921;DHT22;447;51.332;6.778;2022-12-10T07:19:33;4.30;99.90
921;DHT22;447;51.332;6.778;2022-12-10T07:22:02;4.40;99.90
921;DHT22;447;51.332;6.778;2022-12-10T07:24:28;4.40;99.90
921;DHT22;447;51.332;6.778;2022-12-10T07:26:56;4.30;99.90
921;DHT22;447;51.332;6.778;2022-12-10T07:29:24;4.30;99.90
921;DHT22;447;51.332;6.778;2022-12-10T07:31:54;4.40;99.90
921;DHT22;447;51.332;6.778;2022-12-10T07:34:20;4.30;99.90
921;DHT22;447;51.332;6.778;2022-12-10T07:36:47;4.40;99.90
921;DHT22;447;51.332;6.778;2022-12-10T07:39:15;4.40;99.90
921;DHT22;447;51.332;6.778;2022-12-10T07:41:57;4.40;99.90
921;DHT22;447;51.332;6.778;2022-12-10T07:44:27;4.30;99.90
921;DHT22;447;51.332;6.778;2022-12-10T07:46:54;4.40;99.90
921;DHT22;447;51.332;6.778;2022-12-10T07:49:23;4.40;99.90
921;DHT22;447;51.332;6.778;2022-12-10T07:51:50;4.40;99.90
921;DHT22;447;51.332;6.778;2022-12-10T07:54:19;4.30;99.90
921;DHT22;447;51.332;6.778;2022-12-10T07:56:46;4.30;99.90
921;DHT22;447;51.332;6.778;2022-12-10T07:59:12;4.40;99.90
921;DHT22;447;51.332;6.778;2022-12-10T08:01:38;4.40;99.90
921;DHT22;447;51.332;6.778;2022-12-10T08:04:06;4.30;99.90
921;DHT22;447;51.332;6.778;2022-12-10T08:06:34;4.40;99.90
921;DHT22;447;51.332;6.778;2022-12-10T08:09:00;4.30;99.90
921;DHT22;447;51.332;6.778;2022-12-10T08:11:27;4.30;99.90
921;DHT22;447;51.332;6.778;2022-12-10T08:13:56;4.30;99.90
921;DHT22;447;51.332;6.778;2022-12-10T08:16:24;4.30;99.90
921;DHT22;447;51.332;6.778;2022-12-10T08:18:58;4.30;99.90
921;DHT22;447;51.332;6.778;2022-12-10T08:21:29;4.30;99.90
921;DHT22;447;51.332;6.778;2022-12-10T08:23:55;4.30;99.90
921;DHT22;447;51.332;6.778;2022-12-10T08:26:23;4.30;99.90
921;DHT22;447;51.332;6.778;2022-12-10T08:28:56;4.30;99.90
921;DHT22;447;51.332;6.778;2022-12-10T08:31:23;4.30;99.90
921;DHT22;447;51.332;6.778;2022-12-10T08:33:50;4.30;99.90
921;DHT22;447;51.332;6.778;2022-12-10T08:36:17;4.30;99.90
921;DHT22;447;51.332;6.778;2022-12-10T08:38:44;4.30;99.90
921;DHT22;447;51.332;6.778;2022-12-10T08:41:16;4.30;99.90
921;DHT22;447;51.332;6.778;2022-12-10T08:43:46;4.30;99.90
921;DHT22;447;51.332;6.778;2022-12-10T08:46:15;4.30;99.90
921;DHT22;447;51.332;6.778;2022-12-10T08:48:42;4.30;99.90
921;DHT22;447;51.332;6.778;2022-12-10T08:51:10;4.30;99.90
921;DHT22;447;51.332;6.778;2022-12-10T08:53:37;4.30;99.90
921;DHT22;447;51.332;6.778;2022-12-10T08:56:05;4.30;99.90
921;DHT22;447;51.332;6.778;2022-12-10T08:58:36;4.30;99.90
921;DHT22;447;51.332;6.778;2022-12-10T09:01:15;4.30;99.90
921;DHT22;447;51.332;6.778;2022-12-10T09:03:41;4.30;99.90
921;DHT22;447;51.332;6.778;2022-12-10T09:06:15;4.30;99.90
921;DHT22;447;51.332;6.778;2022-12-10T09:08:46;4.30;99.90
921;DHT22;447;51.332;6.778;2022-12-10T09:11:20;4.30;99.90
921;DHT22;447;51.332;6.778;2022-12-10T09:13:49;4.30;99.90
921;DHT22;447;51.332;6.778;2022-12-10T09:16:16;4.30;99.90
921;DHT22;447;51.332;6.778;2022-12-10T09:18:42;4.30;99.90
921;DHT22;447;51.332;6.778;2022-12-10T09:21:11;4.30;99.90
921;DHT22;447;51.332;6.778;2022-12-10T09:23:38;4.30;99.90
921;DHT22;447;51.332;6.778;2022-12-10T09:26:09;4.30;99.90
921;DHT22;447;51.332;6.778;2022-12-10T09:28:36;4.30;99.90
921;DHT22;447;51.332;6.778;2022-12-10T09:31:08;4.30;99.90
921;DHT22;447;51.332;6.778;2022-12-10T09:33:40;4.30;99.90
921;DHT22;447;51.332;6.778;2022-12-10T09:36:08;4.30;99.90
921;DHT22;447;51.332;6.778;2022-12-10T09:38:38;4.30;99.90
921;DHT22;447;51.332;6.778;2022-12-10T09:46:50;4.30;99.90
921;DHT22;447;51.332;6.778;2022-12-10T09:52:31;4.20;99.90
921;DHT22;447;51.332;6.778;2022-12-10T09:55:03;4.20;99.90
921;DHT22;447;51.332;6.778;2022-12-10T09:57:39;4.20;99.90
921;DHT22;447;51.332;6.778;2022-12-10T10:00:24;4.20;99.90
921;DHT22;447;51.332;6.778;2022-12-10T10:02:58;4.20;99.90
921;DHT22;447;51.332;6.778;2022-12-10T10:05:28;4.20;99.90
921;DHT22;447;51.332;6.778;2022-12-10T10:08:02;4.20;99.90
921;DHT22;447;51.332;6.778;2022-12-10T10:10:38;4.20;99.90
921;DHT22;447;51.332;6.778;2022-12-10T10:15:39;4.20;99.90
921;DHT22;447;51.332;6.778;2022-12-10T10:18:17;4.20;99.90
921;DHT22;447;51.332;6.778;2022-12-10T10:20:50;4.30;99.90
921;DHT22;447;51.332;6.778;2022-12-10T10:23:16;4.30;99.90
921;DHT22;447;51.332;6.778;2022-12-10T10:25:43;4.30;99.90
921;DHT22;447;51.332;6.778;2022-12-10T10:28:19;4.30;99.90
921;DHT22;447;51.332;6.778;2022-12-10T10:30:48;4.20;99.90
921;DHT22;447;51.332;6.778;2022-12-10T10:33:15;4.20;99.90
921;DHT22;447;51.332;6.778;2022-12-10T10:35:54;4.20;99.90
921;DHT22;447;51.332;6.778;2022-12-10T10:38:30;4.20;99.90
921;DHT22;447;51.332;6.778;2022-12-10T10:40:59;4.20;99.90
921;DHT22;447;51.332;6.778;2022-12-10T10:43:34;4.20;99.90
921;DHT22;447;51.332;6.778;2022-12-10T10:46:12;4.20;99.90
921;DHT22;447;51.332;6.778;2022-12-10T10:48:39;4.30;99.90
921;DHT22;447;51.332;6.778;2022-12-10T10:53:47;4.20;99.90
921;DHT22;447;51.332;6.778;2022-12-10T10:56:26;4.20;99.90
921;DHT22;447;51.332;6.778;2022-12-10T10:58:59;4.20;99.90
921;DHT22;447;51.332;6.778;2022-12-10T11:04:17;4.20;99.90
921;DHT22;447;51.332;6.778;2022-12-10T11:06:44;4.30;99.90
921;DHT22;447;51.332;6.778;2022-12-10T11:09:32;4.20;99.90
921;DHT22;447;51.332;6.778;2022-12-10T11:12:01;4.30;99.90
921;DHT22;447;51.332;6.778;2022-12-10T11:14:32;4.30;99.90
921;DHT22;447;51.332;6.778;2022-12-10T11:19:52;4.30;99.90
921;DHT22;447;51.332;6.778;2022-12-10T11:22:27;4.30;99.90
921;DHT22;447;51.332;6.778;2022-12-10T11:24:57;4.30;99.90
921;DHT22;447;51.332;6.778;2022-12-10T11:27:37;4.30;99.90
921;DHT22;447;51.332;6.778;2022-12-10T11:30:14;4.30;99.90
921;DHT22;447;51.332;6.778;2022-12-10T11:35:59;4.30;99.90
921;DHT22;447;51.332;6.778;2022-12-10T11:38:54;4.40;99.90
921;DHT22;447;51.332;6.778;2022-12-10T11:44:21;4.30;99.90
921;DHT22;447;51.332;6.778;2022-12-10T11:49:45;4.30;99.90
921;DHT22;447;51.332;6.778;2022-12-10T11:55:05;4.30;99.90
921;DHT22;447;51.332;6.778;2022-12-10T11:58:03;4.30;99.90
921;DHT22;447;51.332;6.778;2022-12-10T12:01:27;4.30;99.90
921;DHT22;447;51.332;6.778;2022-12-10T12:09:30;4.30;99.90
921;DHT22;447;51.332;6.778;2022-12-10T12:14:58;4.30;99.90
921;DHT22;447;51.332;6.778;2022-12-10T12:17:40;4.30;99.90
921;DHT22;447;51.332;6.778;2022-12-10T12:23:00;4.30;99.90
921;DHT22;447;51.332;6.778;2022-12-10T12:25:32;4.30;99.90
921;DHT22;447;51.332;6.778;2022-12-10T12:30:41;4.30;99.90
921;DHT22;447;51.332;6.778;2022-12-10T12:33:19;4.30;99.90
921;DHT22;447;51.332;6.778;2022-12-10T12:35:55;4.40;99.90
921;DHT22;447;51.332;6.778;2022-12-10T12:38:36;4.40;99.90
921;DHT22;447;51.332;6.778;2022-12-10T12:41:15;4.40;99.90
921;DHT22;447;51.332;6.778;2022-12-10T12:46:33;4.40;99.90
921;DHT22;447;51.332;6.778;2022-12-10T12:49:26;4.40;99.90
921;DHT22;447;51.332;6.778;2022-12-10T12:52:00;4.40;99.90
921;DHT22;447;51.332;6.778;2022-12-10T12:54:30;4.40;99.90
921;DHT22;447;51.332;6.778;2022-12-10T12:57:14;4.30;99.90
921;DHT22;447;51.332;6.778;2022-12-10T13:00:05;4.40;99.90
921;DHT22;447;51.332;6.778;2022-12-10T13:03:17;4.40;99.90
921;DHT22;447;51.332;6.778;2022-12-10T13:05:46;4.40;99.90
921;DHT22;447;51.332;6.778;2022-12-10T13:08:27;4.40;99.90
921;DHT22;447;51.332;6.778;2022-12-10T13:13:36;4.40;99.90
921;DHT22;447;51.332;6.778;2022-12-10T13:16:58;4.40;99.90
921;DHT22;447;51.332;6.778;2022-12-10T13:32:43;4.40;99.90
921;DHT22;447;51.332;6.778;2022-12-10T13:35:27;4.40;99.90
921;DHT22;447;51.332;6.778;2022-12-10T13:38:04;4.40;99.90
921;DHT22;447;51.332;6.778;2022-12-10T13:43:39;4.40;99.90
921;DHT22;447;51.332;6.778;2022-12-10T13:46:50;4.40;99.90
921;DHT22;447;51.332;6.778;2022-12-10T13:49:19;4.40;99.90
921;DHT22;447;51.332;6.778;2022-12-10T13:51:58;4.40;99.90
921;DHT22;447;51.332;6.778;2022-12-10T13:57:53;4.40;99.90
921;DHT22;447;51.332;6.778;2022-12-10T14:00:57;4.50;99.90
921;DHT22;447;51.332;6.778;2022-12-10T14:03:57;4.50;99.90
921;DHT22;447;51.332;6.778;2022-12-10T14:06:32;4.40;99.90
921;DHT22;447;51.332;6.778;2022-12-10T14:09:12;4.50;99.90
921;DHT22;447;51.332;6.778;2022-12-10T14:11:46;4.40;99.90
921;DHT22;447;51.332;6.778;2022-12-10T14:14:40;4.50;99.90
921;DHT22;447;51.332;6.778;2022-12-10T14:17:16;4.40;99.90
921;DHT22;447;51.332;6.778;2022-12-10T14:19:45;4.40;99.90
921;DHT22;447;51.332;6.778;2022-12-10T14:22:38;4.50;99.90
921;DHT22;447;51.332;6.778;2022-12-10T14:25:13;4.50;99.90
921;DHT22;447;51.332;6.778;2022-12-10T14:27:40;4.50;99.90
921;DHT22;447;51.332;6.778;2022-12-10T14:32:42;4.50;99.90
921;DHT22;447;51.332;6.778;2022-12-10T14:35:23;4.40;99.90
921;DHT22;447;51.332;6.778;2022-12-10T14:37:53;4.40;99.90
921;DHT22;447;51.332;6.778;2022-12-10T14:43:02;4.50;99.90
921;DHT22;447;51.332;6.778;2022-12-10T14:45:44;4.50;99.90
921;DHT22;447;51.332;6.778;2022-12-10T14:48:14;4.40;99.90
921;DHT22;447;51.332;6.778;2022-12-10T14:50:43;4.40;99.90
921;DHT22;447;51.332;6.778;2022-12-10T14:53:23;4.50;99.90
921;DHT22;447;51.332;6.778;2022-12-10T14:55:55;4.50;99.90
921;DHT22;447;51.332;6.778;2022-12-10T14:58:45;4.50;99.90
921;DHT22;447;51.332;6.778;2022-12-10T15:01:42;4.50;99.90
921;DHT22;447;51.332;6.778;2022-12-10T15:04:17;4.50;99.90
921;DHT22;447;51.332;6.778;2022-12-10T15:06:45;4.50;99.90
921;DHT22;447;51.332;6.778;2022-12-10T15:09:22;4.50;99.90
921;DHT22;447;51.332;6.778;2022-12-10T15:11:58;4.50;99.90
921;DHT22;447;51.332;6.778;2022-12-10T15:14:28;4.50;99.90
921;DHT22;447;51.332;6.778;2022-12-10T15:16:56;4.50;99.90
921;DHT22;447;51.332;6.778;2022-12-10T15:22:00;4.50;99.90
921;DHT22;447;51.332;6.778;2022-12-10T15:24:40;4.50;99.90
921;DHT22;447;51.332;6.778;2022-12-10T15:27:21;4.50;99.90
921;DHT22;447;51.332;6.778;2022-12-10T15:29:48;4.50;99.90
921;DHT22;447;51.332;6.778;2022-12-10T15:32:27;4.50;99.90
921;DHT22;447;51.332;6.778;2022-12-10T15:35:00;4.50;99.90
921;DHT22;447;51.332;6.778;2022-12-10T15:37:38;4.50;99.90
921;DHT22;447;51.332;6.778;2022-12-10T15:40:26;4.50;99.90
921;DHT22;447;51.332;6.778;2022-12-10T15:45:52;4.50;99.90
921;DHT22;447;51.332;6.778;2022-12-10T15:48:20;4.50;99.90
921;DHT22;447;51.332;6.778;2022-12-10T15:50:46;4.50;99.90
921;DHT22;447;51.332;6.778;2022-12-10T15:53:27;4.50;99.90
921;DHT22;447;51.332;6.778;2022-12-10T15:55:56;4.50;99.90
921;DHT22;447;51.332;6.778;2022-12-10T15:58:33;4.50;99.90
921;DHT22;447;51.332;6.778;2022-12-10T16:01:00;4.50;99.90
921;DHT22;447;51.332;6.778;2022-12-10T16:03:27;4.50;99.90
921;DHT22;447;51.332;6.778;2022-12-10T16:05:54;4.50;99.90
921;DHT22;447;51.332;6.778;2022-12-10T16:08:26;4.50;99.90
921;DHT22;447;51.332;6.778;2022-12-10T16:10:55;4.50;99.90
921;DHT22;447;51.332;6.778;2022-12-10T16:13:26;4.50;99.90
921;DHT22;447;51.332;6.778;2022-12-10T16:16:02;4.50;99.90
921;DHT22;447;51.332;6.778;2022-12-10T16:18:32;4.50;99.90
921;DHT22;447;51.332;6.778;2022-12-10T16:21:06;4.50;99.90
921;DHT22;447;51.332;6.778;2022-12-10T16:23:35;4.50;99.90
921;DHT22;447;51.332;6.778;2022-12-10T16:26:17;4.50;99.90
921;DHT22;447;51.332;6.778;2022-12-10T16:28:44;4.50;99.90
921;DHT22;447;51.332;6.778;2022-12-10T16:31:21;4.50;99.90
921;DHT22;447;51.332;6.778;2022-12-10T16:33:49;4.50;99.90
921;DHT22;447;51.332;6.778;2022-12-10T16:36:17;4.50;99.90
921;DHT22;447;51.332;6.778;2022-12-10T16:38:43;4.50;99.90
921;DHT22;447;51.332;6.778;2022-12-10T16:41:16;4.50;99.90
921;DHT22;447;51.332;6.778;2022-12-10T16:43:42;4.50;99.90
921;DHT22;447;51.332;6.778;2022-12-10T16:46:12;4.50;99.90
921;DHT22;447;51.332;6.778;2022-12-10T16:48:43;4.50;99.90
921;DHT22;447;51.332;6.778;2022-12-10T16:51:24;4.50;99.90
921;DHT22;447;51.332;6.778;2022-12-10T16:53:51;4.50;99.90
921;DHT22;447;51.332;6.778;2022-12-10T16:56:20;4.50;99.90
921;DHT22;447;51.332;6.778;2022-12-10T16:58:48;4.60;99.90
921;DHT22;447;51.332;6.778;2022-12-10T17:01:19;4.50;99.90
921;DHT22;447;51.332;6.778;2022-12-10T17:03:46;4.50;99.90
921;DHT22;447;51.332;6.778;2022-12-10T17:06:12;4.50;99.90
921;DHT22;447;51.332;6.778;2022-12-10T17:08:43;4.50;99.90
921;DHT22;447;51.332;6.778;2022-12-10T17:11:21;4.50;99.90
921;DHT22;447;51.332;6.778;2022-12-10T17:14:26;4.50;99.90
921;DHT22;447;51.332;6.778;2022-12-10T17:16:55;4.60;99.90
921;DHT22;447;51.332;6.778;2022-12-10T17:19:32;4.50;99.90
921;DHT22;447;51.332;6.778;2022-12-10T17:22:01;4.50;99.90
921;DHT22;447;51.332;6.778;2022-12-10T17:24:27;4.50;99.90
921;DHT22;447;51.332;6.778;2022-12-10T17:27:00;4.50;99.90
921;DHT22;447;51.332;6.778;2022-12-10T17:29:38;4.50;99.90
921;DHT22;447;51.332;6.778;2022-12-10T17:32:06;4.50;99.90
921;DHT22;447;51.332;6.778;2022-12-10T17:34:37;4.50;99.90
921;DHT22;447;51.332;6.778;2022-12-10T17:37:17;4.50;99.90
921;DHT22;447;51.332;6.778;2022-12-10T17:39:47;4.50;99.90
921;DHT22;447;51.332;6.778;2022-12-10T17:42:13;4.50;99.90
921;DHT22;447;51.332;6.778;2022-12-10T17:44:39;4.50;99.90
921;DHT22;447;51.332;6.778;2022-12-10T17:47:24;4.50;99.90
921;DHT22;447;51.332;6.778;2022-12-10T17:49:53;4.50;99.90
921;DHT22;447;51.332;6.778;2022-12-10T17:52:22;4.50;99.90
921;DHT22;447;51.332;6.778;2022-12-10T17:54:50;4.50;99.90
921;DHT22;447;51.332;6.778;2022-12-10T17:57:23;4.50;99.90
921;DHT22;447;51.332;6.778;2022-12-10T17:59:53;4.50;99.90
921;DHT22;447;51.332;6.778;2022-12-10T18:02:19;4.50;99.90
921;DHT22;447;51.332;6.778;2022-12-10T18:04:48;4.50;99.90
921;DHT22;447;51.332;6.778;2022-12-10T18:07:17;4.50;99.90
921;DHT22;447;51.332;6.778;2022-12-10T18:09:44;4.50;99.90
921;DHT22;447;51.332;6.778;2022-12-10T18:12:12;4.50;99.90
921;DHT22;447;51.332;6.778;2022-12-10T18:14:43;4.50;99.90
921;DHT22;447;51.332;6.778;2022-12-10T18:17:14;4.50;99.90
921;DHT22;447;51.332;6.778;2022-12-10T18:19:40;4.50;99.90
921;DHT22;447;51.332;6.778;2022-12-10T18:22:06;4.60;99.90
921;DHT22;447;51.332;6.778;2022-12-10T18:24:39;4.50;99.90
921;DHT22;447;51.332;6.778;2022-12-10T18:27:05;4.50;99.90
921;DHT22;447;51.332;6.778;2022-12-10T18:29:31;4.50;99.90
921;DHT22;447;51.332;6.778;2022-12-10T18:31:58;4.50;99.90
921;DHT22;447;51.332;6.778;2022-12-10T18:34:26;4.50;99.90
921;DHT22;447;51.332;6.778;2022-12-10T18:36:53;4.50;99.90
921;DHT22;447;51.332;6.778;2022-12-10T18:39:23;4.60;99.90
921;DHT22;447;51.332;6.778;2022-12-10T18:41:54;4.50;99.90
921;DHT22;447;51.332;6.778;2022-12-10T18:44:23;4.60;99.90
921;DHT22;447;51.332;6.778;2022-12-10T18:46:51;4.50;99.90
921;DHT22;447;51.332;6.778;2022-12-10T18:49:17;4.50;99.90
921;DHT22;447;51.332;6.778;2022-12-10T18:51:43;4.50;99.90
921;DHT22;447;51.332;6.778;2022-12-10T18:54:15;4.50;99.90
921;DHT22;447;51.332;6.778;2022-12-10T18:56:44;4.50;99.90
921;DHT22;447;51.332;6.778;2022-12-10T18:59:16;4.50;99.90
921;DHT22;447;51.332;6.778;2022-12-10T19:01:43;4.50;99.90